Terminal Aerodrome Forecast
Issued by NWS Jacksonville, FL

Home | Current Version | Previous Version | Text Only | Print | Product List | Glossary On
Versions: 1 2 3 4 5 6 7 8 9 10 11 12 13 14 15 16 17 18 19 20 21 22 23 24 25 26 27 28 29 30 31 32 33
360
FTUS42 KJAX 240534
TAFJAX
TAF
KJAX 240534Z 2406/2506 36010KT P6SM -RA OVC004
      TEMPO 2409/2413 OVC003
     FM241400 36010G15KT P6SM VCSH OVC006
     FM241800 03008KT P6SM OVC010
     FM242200 04005KT P6SM OVC015=

USA.gov is the U.S. government's official web portal to all federal, state and local government web resources and services.